Time;durP1;ratioP1;P1;durP2;ratioP2;P2;SDS_P1;SDS_P2;PMS_P1;PMS_P2;Temp;Humidity;BMP_temperature;BMP_pressure;BME280_temperature;BME280_humidity;BME280_pressure;Samples;Min_cycle;Max_cycle;Signal;HPM_P1;HPM_P2
2021/06/19 00:00:04;;;;;;;10.63;9.53;;;22.80;84.10;;;;;;5127355;27;20494;-68
2021/06/19 00:02:31;;;;;;;9.97;8.70;;;22.80;83.90;;;;;;5133826;27;20485;-68
2021/06/19 00:04:58;;;;;;;11.70;9.57;;;22.80;84.10;;;;;;5120089;27;20499;-69
2021/06/19 00:07:25;;;;;;;10.17;8.87;;;22.70;84.00;;;;;;5114751;28;20434;-68
2021/06/19 00:09:52;;;;;;;10.67;8.50;;;22.70;84.10;;;;;;5133660;27;20928;-69
2021/06/19 00:12:19;;;;;;;15.47;9.87;;;22.70;83.90;;;;;;5131604;27;20911;-68
2021/06/19 00:14:48;;;;;;;13.70;10.03;;;22.70;83.50;;;;;;5113206;28;20434;-69
2021/06/19 00:17:15;;;;;;;13.07;9.23;;;22.60;83.70;;;;;;5113194;28;20438;-68
2021/06/19 00:19:45;;;;;;;12.97;9.90;;;22.50;84.00;;;;;;5133618;27;20433;-68
2021/06/19 00:22:15;;;;;;;11.77;9.67;;;22.50;84.30;;;;;;5133601;27;20599;-69
2021/06/19 00:24:42;;;;;;;10.03;9.00;;;22.50;84.60;;;;;;5131249;27;20425;-70
2021/06/19 00:27:09;;;;;;;12.10;10.90;;;22.50;84.80;;;;;;5133473;27;20441;-68
2021/06/19 00:29:36;;;;;;;11.77;10.57;;;22.50;84.90;;;;;;5113824;27;20439;-68
2021/06/19 00:32:06;;;;;;;11.77;9.77;;;22.50;84.90;;;;;;5112898;28;20445;-69
2021/06/19 00:34:33;;;;;;;15.13;11.70;;;22.40;85.20;;;;;;5131007;28;20429;-68
2021/06/19 00:37:00;;;;;;;11.67;10.57;;;22.40;85.20;;;;;;5133291;28;20517;-68
2021/06/19 00:39:28;;;;;;;11.13;10.00;;;22.30;85.30;;;;;;5115753;28;20872;-68
2021/06/19 00:41:55;;;;;;;12.27;9.90;;;22.30;85.20;;;;;;5112762;28;21059;-68
2021/06/19 00:44:22;;;;;;;16.90;11.23;;;22.30;85.30;;;;;;5127887;28;20494;-68
2021/06/19 00:46:53;;;;;;;14.70;10.87;;;22.30;85.60;;;;;;5133309;28;20506;-68
2021/06/19 00:49:23;;;;;;;13.03;11.63;;;22.20;85.80;;;;;;5118361;28;20466;-68
2021/06/19 00:51:50;;;;;;;16.77;11.03;;;22.20;86.00;;;;;;5112692;28;20473;-68
2021/06/19 00:54:18;;;;;;;12.27;10.77;;;22.20;86.10;;;;;;5125958;28;20442;-69
2021/06/19 00:56:46;;;;;;;12.03;10.83;;;22.10;86.30;;;;;;5128432;28;20438;-68
2021/06/19 00:59:15;;;;;;;11.77;10.47;;;22.10;86.20;;;;;;5112632;28;20434;-68
2021/06/19 01:01:42;;;;;;;15.53;11.10;;;22.10;86.40;;;;;;5125580;28;20976;-68
2021/06/19 01:04:09;;;;;;;14.90;10.60;;;22.10;86.70;;;;;;5131379;28;20429;-69
2021/06/19 01:06:38;;;;;;;11.33;9.03;;;22.10;87.00;;;;;;5133287;28;20850;-68
2021/06/19 01:09:07;;;;;;;10.60;9.60;;;22.00;86.80;;;;;;5124486;28;20429;-68
2021/06/19 01:11:35;;;;;;;11.13;9.70;;;22.00;87.00;;;;;;5112655;28;20483;-68
2021/06/19 01:14:03;;;;;;;12.47;11.20;;;22.00;86.70;;;;;;5119194;28;20449;-68
2021/06/19 01:16:30;;;;;;;12.13;10.40;;;22.00;86.90;;;;;;5132969;28;20441;-69
2021/06/19 01:18:57;;;;;;;11.00;10.00;;;22.00;87.00;;;;;;5128038;27;20459;-68
2021/06/19 01:21:25;;;;;;;12.83;11.43;;;22.00;87.30;;;;;;5116380;28;20429;-69
2021/06/19 01:23:54;;;;;;;11.67;10.23;;;22.00;87.00;;;;;;5120598;27;20477;-68
2021/06/19 01:26:25;;;;;;;10.57;9.47;;;22.10;86.60;;;;;;5136599;27;20433;-68
2021/06/19 01:28:53;;;;;;;14.43;10.40;;;22.10;86.20;;;;;;5132338;27;20503;-68
2021/06/19 01:31:21;;;;;;;14.33;10.20;;;22.20;86.00;;;;;;5116261;28;20562;-68
2021/06/19 01:33:49;;;;;;;12.00;10.73;;;22.30;85.30;;;;;;5118797;27;20430;-68
2021/06/19 01:36:18;;;;;;;11.97;10.80;;;22.30;84.70;;;;;;5136632;27;20792;-69
2021/06/19 01:38:47;;;;;;;12.23;10.37;;;22.30;84.70;;;;;;5134239;27;20494;-68
2021/06/19 01:41:16;;;;;;;10.43;9.47;;;22.20;84.70;;;;;;5116161;28;20438;-68
2021/06/19 01:43:45;;;;;;;13.17;11.87;;;22.20;84.70;;;;;;5116270;27;20517;-68
2021/06/19 01:46:13;;;;;;;12.70;10.13;;;22.20;84.40;;;;;;5136558;27;20475;-68
2021/06/19 01:48:41;;;;;;;13.80;9.93;;;22.20;84.00;;;;;;5136001;27;20445;-69
2021/06/19 01:51:09;;;;;;;10.67;9.67;;;22.20;84.10;;;;;;5095525;28;20492;-68
2021/06/19 01:53:39;;;;;;;11.93;9.90;;;22.20;83.80;;;;;;5095482;28;20443;-69
2021/06/19 01:56:07;;;;;;;13.33;10.50;;;22.30;83.20;;;;;;5115919;27;20434;-69
2021/06/19 01:58:34;;;;;;;13.50;10.70;;;22.30;83.00;;;;;;5115636;28;20478;-69
2021/06/19 02:01:03;;;;;;;9.63;8.70;;;22.40;82.80;;;;;;5134056;27;20444;-68
2021/06/19 02:03:30;;;;;;;10.83;8.67;;;22.40;82.60;;;;;;5136071;27;20518;-68
2021/06/19 02:05:57;;;;;;;10.07;9.03;;;22.40;82.20;;;;;;5117569;27;20978;-69
2021/06/19 02:08:24;;;;;;;12.00;10.43;;;22.50;81.90;;;;;;5129062;27;20482;-68
2021/06/19 02:10:51;;;;;;;10.90;9.70;;;22.50;81.70;;;;;;5136151;27;20794;-68
2021/06/19 02:13:18;;;;;;;13.20;10.50;;;22.50;81.60;;;;;;5123099;27;20466;-69
2021/06/19 02:15:47;;;;;;;11.47;10.27;;;22.60;81.80;;;;;;5115498;28;20438;-68
2021/06/19 02:18:16;;;;;;;11.57;9.63;;;22.60;81.60;;;;;;5126315;27;20955;-69
2021/06/19 02:20:44;;;;;;;17.57;11.30;;;22.60;81.60;;;;;;5135868;27;20429;-70
2021/06/19 02:23:11;;;;;;;9.87;8.43;;;22.70;81.80;;;;;;5124952;27;20481;-68
2021/06/19 02:25:38;;;;;;;10.63;9.60;;;22.70;82.00;;;;;;5120248;27;20425;-68
2021/06/19 02:28:07;;;;;;;10.50;9.40;;;22.70;81.90;;;;;;5121703;27;20549;-68
2021/06/19 02:30:36;;;;;;;10.70;8.57;;;22.70;81.80;;;;;;5115383;27;20445;-68
2021/06/19 02:33:04;;;;;;;11.27;10.17;;;22.60;81.80;;;;;;5135555;27;20471;-68
2021/06/19 02:35:35;;;;;;;11.10;10.00;;;22.60;82.00;;;;;;5134022;27;20433;-68
2021/06/19 02:38:03;;;;;;;11.60;9.57;;;22.60;82.20;;;;;;5114891;28;20466;-68
2021/06/19 02:40:30;;;;;;;11.07;9.80;;;22.60;82.30;;;;;;5114323;27;20438;-69
2021/06/19 02:42:57;;;;;;;11.10;9.20;;;22.60;82.50;;;;;;5135218;27;20477;-67
2021/06/19 02:45:24;;;;;;;11.63;8.60;;;22.60;82.70;;;;;;5133801;27;20757;-67
2021/06/19 02:47:53;;;;;;;12.93;10.00;;;22.50;82.80;;;;;;5094529;28;20431;-68
2021/06/19 02:50:23;;;;;;;11.10;8.53;;;22.50;82.90;;;;;;5094685;27;20937;-69
2021/06/19 02:52:51;;;;;;;12.33;10.07;;;22.50;83.10;;;;;;5135131;27;20465;-68
2021/06/19 02:55:20;;;;;;;10.30;9.20;;;22.40;83.00;;;;;;5135237;27;20440;-68
2021/06/19 02:57:48;;;;;;;16.87;9.20;;;22.40;83.20;;;;;;5134103;27;20433;-67
2021/06/19 03:00:17;;;;;;;12.90;9.47;;;22.40;83.70;;;;;;5135177;27;20824;-68
2021/06/19 03:02:44;;;;;;;9.93;8.90;;;22.30;83.70;;;;;;5115225;27;20874;-67
2021/06/19 03:05:14;;;;;;;10.13;9.13;;;22.30;83.70;;;;;;5114299;28;20801;-68
2021/06/19 03:07:41;;;;;;;10.67;9.47;;;22.30;83.70;;;;;;5132274;27;20437;-68
2021/06/19 03:10:13;;;;;;;14.50;9.43;;;22.40;83.70;;;;;;5129244;27;20434;-67
2021/06/19 03:12:40;;;;;;;10.47;9.20;;;22.40;83.60;;;;;;5114627;28;20519;-68
2021/06/19 03:15:09;;;;;;;12.20;9.37;;;22.40;83.50;;;;;;5118137;27;20465;-68
2021/06/19 03:17:36;;;;;;;12.73;8.60;;;22.40;83.80;;;;;;5134755;27;20834;-68
2021/06/19 03:20:05;;;;;;;11.47;10.27;;;22.40;83.40;;;;;;5131057;27;20439;-68
2021/06/19 03:22:42;;;;;;;10.77;8.50;;;22.40;83.60;;;;;;5113924;28;20481;-68
2021/06/19 03:25:14;;;;;;;13.30;8.80;;;22.40;84.00;;;;;;5116848;27;20437;-68
2021/06/19 03:27:41;;;;;;;12.60;9.93;;;22.40;83.90;;;;;;5134300;27;20461;-68
2021/06/19 03:30:10;;;;;;;16.50;9.10;;;22.30;84.00;;;;;;5131156;27;20493;-68
2021/06/19 03:32:38;;;;;;;11.17;10.17;;;22.20;84.20;;;;;;5113804;28;20458;-68
2021/06/19 03:35:07;;;;;;;11.87;9.27;;;22.20;84.30;;;;;;5115184;27;21213;-67
2021/06/19 03:37:34;;;;;;;10.40;9.10;;;22.20;84.40;;;;;;5134397;27;20486;-67
2021/06/19 03:40:01;;;;;;;10.67;9.57;;;22.20;84.50;;;;;;5133328;27;20844;-68
2021/06/19 03:42:30;;;;;;;10.60;9.50;;;22.20;84.50;;;;;;5113614;28;20438;-68
2021/06/19 03:44:57;;;;;;;11.13;9.63;;;22.20;84.80;;;;;;5113302;28;20487;-71
2021/06/19 03:47:24;;;;;;;11.03;8.20;;;22.20;85.00;;;;;;5133421;27;20438;-69
2021/06/19 03:49:51;;;;;;;10.10;9.10;;;22.20;85.00;;;;;;5134014;27;20810;-67
2021/06/19 03:52:18;;;;;;;15.20;12.90;;;22.20;85.00;;;;;;5114695;27;20844;-68
2021/06/19 03:54:45;;;;;;;21.93;17.63;;;22.20;84.90;;;;;;5113651;28;20459;-68
2021/06/19 03:57:23;;;;;;;18.20;13.27;;;22.30;84.90;;;;;;5130716;27;20464;-68
2021/06/19 03:59:52;;;;;;;15.17;12.03;;;22.40;84.90;;;;;;5133909;27;20436;-68
2021/06/19 04:02:20;;;;;;;12.13;10.80;;;22.40;84.80;;;;;;5115491;27;20439;-68
2021/06/19 04:04:48;;;;;;;11.43;10.23;;;22.50;84.50;;;;;;5113445;28;20474;-68
2021/06/19 04:07:15;;;;;;;12.70;9.60;;;22.60;84.80;;;;;;5129860;27;20524;-68
2021/06/19 04:09:42;;;;;;;12.93;9.63;;;22.70;84.80;;;;;;5134029;27;20478;-68
2021/06/19 04:12:10;;;;;;;14.30;11.47;;;22.70;84.80;;;;;;5117993;27;20434;-68
2021/06/19 04:14:37;;;;;;;11.90;10.80;;;22.80;85.30;;;;;;5113441;28;20434;-68
2021/06/19 04:17:08;;;;;;;11.40;10.20;;;22.90;85.60;;;;;;5127159;27;20835;-68
2021/06/19 04:19:35;;;;;;;11.57;10.47;;;22.90;86.00;;;;;;5133978;27;21036;-68
2021/06/19 04:22:04;;;;;;;12.33;9.57;;;23.00;84.40;;;;;;5120043;27;20944;-68
2021/06/19 04:24:35;;;;;;;10.80;9.67;;;23.10;84.80;;;;;;5113144;28;20522;-68
2021/06/19 04:27:03;;;;;;;11.73;9.60;;;23.10;85.70;;;;;;5125475;27;20465;-68
2021/06/19 04:29:32;;;;;;;13.97;10.73;;;23.20;86.50;;;;;;5133768;27;20490;-68
2021/06/19 04:32:02;;;;;;;11.80;10.53;;;23.20;86.10;;;;;;5121636;28;20776;-68
2021/06/19 04:34:30;;;;;;;10.50;9.40;;;23.30;86.10;;;;;;5113204;28;20961;-68
2021/06/19 04:36:57;;;;;;;12.63;10.50;;;23.40;86.00;;;;;;5123010;28;20468;-68
2021/06/19 04:39:24;;;;;;;14.07;10.57;;;23.40;87.10;;;;;;5133566;28;20908;-68
2021/06/19 04:41:54;;;;;;;13.90;9.03;;;23.50;87.70;;;;;;5123996;28;20442;-68
2021/06/19 04:44:39;;;;;;;11.93;8.83;;;23.50;87.10;;;;;;5113161;28;20551;-68
2021/06/19 04:47:06;;;;;;;12.40;10.73;;;23.60;86.90;;;;;;5123055;28;20487;-68
2021/06/19 04:49:35;;;;;;;15.53;10.30;;;23.70;87.40;;;;;;5133503;28;20440;-68
2021/06/19 04:52:02;;;;;;;12.23;10.43;;;23.70;87.70;;;;;;5124084;28;20430;-68
2021/06/19 04:54:36;;;;;;;9.67;8.67;;;23.70;87.70;;;;;;5116406;27;20438;-68
2021/06/19 04:57:05;;;;;;;12.90;8.90;;;23.70;87.80;;;;;;5137764;27;20432;-68
2021/06/19 04:59:32;;;;;;;10.27;8.97;;;23.80;87.70;;;;;;5136014;27;20445;-68
2021/06/19 05:01:59;;;;;;;10.43;8.83;;;23.80;87.80;;;;;;5117040;28;20525;-67
2021/06/19 05:04:27;;;;;;;10.07;9.07;;;23.80;87.80;;;;;;5116954;27;20991;-68
2021/06/19 05:07:00;;;;;;;14.57;9.93;;;23.90;87.90;;;;;;5137419;27;20429;-68
2021/06/19 05:09:27;;;;;;;12.47;8.53;;;23.90;87.30;;;;;;5137520;27;20437;-68
2021/06/19 05:11:54;;;;;;;11.97;9.50;;;23.90;86.70;;;;;;5118601;27;20502;-68
2021/06/19 05:14:21;;;;;;;12.10;10.83;;;24.00;86.60;;;;;;5137308;27;20502;-68
2021/06/19 05:16:48;;;;;;;13.63;9.27;;;24.00;85.90;;;;;;5118231;27;20487;-68
2021/06/19 05:19:17;;;;;;;12.43;9.70;;;24.00;86.00;;;;;;5116750;28;20526;-68
2021/06/19 05:21:44;;;;;;;15.37;10.63;;;24.10;85.10;;;;;;5105013;27;20443;-68
2021/06/19 05:24:12;;;;;;;10.87;9.77;;;24.10;84.60;;;;;;5113171;28;20527;-68
2021/06/19 05:26:39;;;;;;;12.30;10.13;;;24.20;85.70;;;;;;5113478;27;20853;-70
2021/06/19 05:29:07;;;;;;;11.97;10.67;;;24.30;87.00;;;;;;5113574;28;20863;-67
2021/06/19 05:31:34;;;;;;;15.80;11.57;;;24.30;87.00;;;;;;5104089;28;20439;-69
2021/06/19 05:34:01;;;;;;;16.70;11.23;;;24.40;86.50;;;;;;5099645;28;20442;-68
2021/06/19 05:36:28;;;;;;;15.10;10.97;;;24.40;85.90;;;;;;5106853;27;20446;-68
2021/06/19 05:38:55;;;;;;;12.23;11.03;;;24.50;85.50;;;;;;5113650;28;20438;-68
2021/06/19 05:41:23;;;;;;;12.60;9.40;;;24.60;85.60;;;;;;5104484;27;20480;-69
2021/06/19 05:43:50;;;;;;;11.53;10.10;;;24.60;85.60;;;;;;5109510;28;20478;-67
2021/06/19 05:46:18;;;;;;;9.90;9.00;;;24.70;85.30;;;;;;5113399;27;20445;-68
2021/06/19 05:48:45;;;;;;;11.93;10.73;;;24.70;85.50;;;;;;5113867;27;20437;-68
2021/06/19 05:51:12;;;;;;;12.00;10.47;;;24.80;86.00;;;;;;5112944;28;20446;-67
2021/06/19 05:53:39;;;;;;;15.00;9.83;;;24.90;84.80;;;;;;5113161;28;20920;-68
2021/06/19 05:56:12;;;;;;;10.63;8.43;;;24.90;84.20;;;;;;5113373;27;20446;-68
2021/06/19 05:58:43;;;;;;;10.10;8.90;;;25.00;84.20;;;;;;5112706;28;20456;-71
2021/06/19 06:01:09;;;;;;;9.87;8.77;;;25.10;84.30;;;;;;5100716;27;20423;-68
2021/06/19 06:03:36;;;;;;;11.80;9.70;;;25.10;84.30;;;;;;5094857;28;21032;-69
2021/06/19 06:06:09;;;;;;;13.20;9.40;;;25.30;84.20;;;;;;5101155;27;21010;-67
2021/06/19 06:08:36;;;;;;;10.63;9.53;;;25.30;83.20;;;;;;5109080;28;20434;-70
2021/06/19 06:11:03;;;;;;;10.00;8.97;;;25.30;82.20;;;;;;5112551;28;20444;-68
2021/06/19 06:13:33;;;;;;;11.50;8.60;;;25.40;82.40;;;;;;5112552;28;20492;-68
2021/06/19 06:16:02;;;;;;;11.03;8.43;;;25.40;83.30;;;;;;5108886;27;20458;-68
2021/06/19 06:18:29;;;;;;;11.77;8.67;;;25.40;84.30;;;;;;5112730;28;20483;-68
2021/06/19 06:20:56;;;;;;;12.20;8.70;;;25.50;83.50;;;;;;5113021;27;20460;-68
2021/06/19 06:23:24;;;;;;;9.47;8.10;;;25.60;82.00;;;;;;5112462;28;20438;-68
2021/06/19 06:25:51;;;;;;;12.70;9.10;;;25.60;80.00;;;;;;5106315;27;20449;-68
2021/06/19 06:28:18;;;;;;;10.93;8.30;;;25.60;79.80;;;;;;5112554;28;20470;-68
2021/06/19 06:30:45;;;;;;;10.47;8.90;;;25.70;77.00;;;;;;5112325;27;20439;-67
2021/06/19 06:33:15;;;;;;;15.07;9.77;;;25.70;77.40;;;;;;5112039;28;20441;-68
2021/06/19 06:35:42;;;;;;;14.83;9.63;;;25.70;75.80;;;;;;5108322;27;20426;-67
2021/06/19 06:38:09;;;;;;;11.53;9.07;;;25.70;75.60;;;;;;5112317;28;20434;-67
2021/06/19 06:40:36;;;;;;;13.80;8.57;;;25.70;76.00;;;;;;5111936;28;20443;-67
2021/06/19 06:43:05;;;;;;;14.20;9.10;;;25.90;76.00;;;;;;5111642;28;20466;-68
2021/06/19 06:45:32;;;;;;;10.70;8.50;;;25.90;74.10;;;;;;5112232;27;20506;-67
2021/06/19 06:48:00;;;;;;;14.73;9.13;;;25.90;74.50;;;;;;5112118;28;20442;-68
2021/06/19 06:50:29;;;;;;;10.90;9.43;;;26.00;73.90;;;;;;5112263;27;20501;-68
2021/06/19 06:53:00;;;;;;;11.10;9.07;;;26.10;74.10;;;;;;5107765;28;20462;-68
2021/06/19 06:55:27;;;;;;;12.50;8.87;;;26.20;73.80;;;;;;5110055;27;20924;-67
2021/06/19 06:57:54;;;;;;;8.80;7.90;;;26.20;72.30;;;;;;5094104;28;20427;-68
2021/06/19 07:00:22;;;;;;;12.37;8.80;;;26.20;72.10;;;;;;5097914;27;20462;-68
2021/06/19 07:02:49;;;;;;;10.10;8.70;;;26.20;72.90;;;;;;5112070;28;20438;-68
2021/06/19 07:05:16;;;;;;;12.97;9.70;;;26.30;73.20;;;;;;5113986;27;20514;-67
2021/06/19 07:07:45;;;;;;;11.17;8.77;;;26.50;73.30;;;;;;5096399;27;20553;-68
2021/06/19 07:10:14;;;;;;;16.03;8.87;;;26.70;73.20;;;;;;5096141;27;20528;-68
2021/06/19 07:12:43;;;;;;;8.73;7.83;;;26.80;71.00;;;;;;5114642;28;20918;-68
2021/06/19 07:15:14;;;;;;;12.70;8.80;;;27.00;72.90;;;;;;5104867;27;20449;-67
2021/06/19 07:17:41;;;;;;;10.87;8.60;;;27.10;69.60;;;;;;5110776;28;20847;-67
2021/06/19 07:20:11;;;;;;;11.63;7.83;;;27.10;71.10;;;;;;5111277;27;20495;-68
2021/06/19 07:22:38;;;;;;;8.93;8.07;;;27.30;71.70;;;;;;5098437;27;20446;-67
2021/06/19 07:25:09;;;;;;;9.53;8.03;;;27.60;71.60;;;;;;5098165;27;20566;-67
2021/06/19 07:27:37;;;;;;;11.20;8.90;;;27.80;68.10;;;;;;5107547;28;20556;-68
2021/06/19 07:30:06;;;;;;;10.87;8.03;;;28.00;67.20;;;;;;5112090;28;20934;-69
2021/06/19 07:32:33;;;;;;;10.77;9.20;;;28.10;67.60;;;;;;5111916;28;20514;-68
2021/06/19 07:35:00;;;;;;;12.43;7.70;;;28.30;65.20;;;;;;5110748;28;20513;-68
2021/06/19 07:37:27;;;;;;;10.20;8.40;;;28.40;63.90;;;;;;5098045;27;20526;-68
2021/06/19 07:39:54;;;;;;;9.77;7.97;;;28.40;62.20;;;;;;5093463;28;20493;-67
2021/06/19 07:42:23;;;;;;;11.10;8.23;;;28.60;63.50;;;;;;5093447;28;20504;-69
2021/06/19 07:44:50;;;;;;;8.70;7.30;;;28.80;64.90;;;;;;5112777;27;20967;-69
2021/06/19 07:47:18;;;;;;;11.47;7.40;;;29.00;63.50;;;;;;5097669;27;20518;-69
2021/06/19 07:49:45;;;;;;;14.27;6.83;;;29.10;57.90;;;;;;5093351;28;20531;-70
2021/06/19 07:52:12;;;;;;;13.30;6.93;;;29.20;56.00;;;;;;5093780;28;20817;-70
2021/06/19 07:54:39;;;;;;;10.63;6.10;;;29.30;55.70;;;;;;5103318;27;20534;-69
2021/06/19 07:57:10;;;;;;;15.93;6.37;;;29.40;54.40;;;;;;5102412;28;20434;-69
2021/06/19 07:59:38;;;;;;;11.83;7.30;;;29.40;51.10;;;;;;5111102;28;20892;-69
2021/06/19 08:02:06;;;;;;;13.20;6.77;;;29.40;52.20;;;;;;5111044;28;20466;-69
2021/06/19 08:04:38;;;;;;;9.80;6.57;;;29.50;53.00;;;;;;5110654;28;20524;-69
2021/06/19 08:07:06;;;;;;;10.73;5.97;;;29.70;53.90;;;;;;5111024;27;20427;-69
2021/06/19 08:09:33;;;;;;;13.13;7.07;;;29.90;53.70;;;;;;5110166;28;20453;-69
2021/06/19 08:12:00;;;;;;;13.10;6.10;;;30.00;53.30;;;;;;5110605;28;20442;-69
2021/06/19 08:14:34;;;;;;;11.37;6.13;;;30.20;53.40;;;;;;5110791;28;20452;-69
2021/06/19 08:17:08;;;;;;;6.97;6.17;;;30.40;54.00;;;;;;5110272;27;20924;-70
2021/06/19 08:19:40;;;;;;;8.50;6.50;;;30.60;51.80;;;;;;5107729;28;21033;-69
2021/06/19 08:22:13;;;;;;;9.20;6.17;;;30.70;53.40;;;;;;5110512;28;20433;-70
2021/06/19 08:24:47;;;;;;;9.87;6.60;;;30.90;52.20;;;;;;5107297;28;21193;-69
2021/06/19 08:30:03;;;;;;;9.50;6.47;;;31.10;50.00;;;;;;5079839;28;20438;-68
2021/06/19 08:32:35;;;;;;;11.13;8.10;;;31.30;50.00;;;;;;5078783;28;20804;-71
2021/06/19 08:35:08;;;;;;;8.40;6.00;;;31.40;48.90;;;;;;5070873;28;20441;-67
2021/06/19 08:37:35;;;;;;;9.27;7.30;;;31.40;48.70;;;;;;5079339;28;20443;-70
2021/06/19 08:40:02;;;;;;;13.00;7.10;;;31.50;49.70;;;;;;5090133;28;20471;-68
2021/06/19 08:42:29;;;;;;;12.23;6.90;;;31.60;50.30;;;;;;5077008;28;20854;-67
2021/06/19 08:45:00;;;;;;;7.43;6.63;;;31.70;48.80;;;;;;5090188;28;20518;-67
2021/06/19 08:50:54;;;;;;;9.43;6.63;;;31.90;49.60;;;;;;5078173;28;20443;-69
2021/06/19 08:53:23;;;;;;;11.83;7.83;;;31.90;47.30;;;;;;5088681;28;20500;-68
2021/06/19 08:55:53;;;;;;;11.00;6.90;;;32.00;46.80;;;;;;5087916;28;20466;-67
2021/06/19 08:58:33;;;;;;;9.37;6.43;;;32.00;47.50;;;;;;5089298;28;20512;-68
2021/06/19 09:01:10;;;;;;;11.20;5.30;;;32.20;47.10;;;;;;5084521;28;20427;-67
2021/06/19 09:03:42;;;;;;;12.33;7.40;;;32.30;48.40;;;;;;5089662;28;20962;-67
2021/06/19 09:06:26;;;;;;;11.50;6.37;;;32.50;47.20;;;;;;5088549;28;20574;-67
2021/06/19 09:09:18;;;;;;;12.00;7.10;;;32.60;46.00;;;;;;5073266;28;20485;-68
2021/06/19 09:11:47;;;;;;;16.30;5.97;;;32.70;45.40;;;;;;5072668;28;20472;-69
2021/06/19 09:14:20;;;;;;;10.17;6.60;;;32.80;44.70;;;;;;5081288;28;20435;-73
2021/06/19 09:17:03;;;;;;;14.60;6.70;;;32.80;44.60;;;;;;5086496;28;20518;-68
2021/06/19 09:19:34;;;;;;;23.73;8.07;;;32.80;43.90;;;;;;5079329;28;20438;-68
2021/06/19 09:22:19;;;;;;;12.10;6.40;;;32.90;43.50;;;;;;5088959;28;20462;-68
2021/06/19 09:24:51;;;;;;;7.90;6.70;;;32.90;41.70;;;;;;5074501;28;21086;-68
2021/06/19 09:27:46;;;;;;;7.63;6.50;;;32.90;42.30;;;;;;5073019;28;20522;-68
2021/06/19 09:30:15;;;;;;;8.73;5.90;;;32.90;42.90;;;;;;5092271;28;20537;-69
2021/06/19 09:32:44;;;;;;;11.70;6.43;;;32.90;43.50;;;;;;5089132;28;20441;-68
2021/06/19 09:35:16;;;;;;;13.63;6.13;;;32.80;42.00;;;;;;5088534;28;20860;-68
2021/06/19 09:37:47;;;;;;;8.40;6.70;;;32.80;41.90;;;;;;5080952;28;20550;-70
2021/06/19 09:40:32;;;;;;;8.57;6.17;;;32.80;42.40;;;;;;5088067;28;20510;-68
2021/06/19 09:43:12;;;;;;;13.30;6.70;;;32.90;43.00;;;;;;5092671;28;20797;-68
2021/06/19 09:45:41;;;;;;;8.87;6.60;;;33.10;42.90;;;;;;5090890;28;20825;-68
2021/06/19 09:48:26;;;;;;;9.50;7.30;;;33.20;43.50;;;;;;5088181;28;20928;-69
2021/06/19 09:51:16;;;;;;;10.40;6.17;;;33.20;40.60;;;;;;5092496;28;20423;-71
2021/06/19 09:53:52;;;;;;;8.43;5.90;;;33.30;42.40;;;;;;5089624;28;20456;-70
2021/06/19 09:56:24;;;;;;;10.50;6.73;;;33.30;41.60;;;;;;5089762;28;21007;-69
2021/06/19 09:58:56;;;;;;;9.50;6.23;;;33.50;42.40;;;;;;5091575;28;20518;-69
2021/06/19 10:01:40;;;;;;;12.07;6.93;;;33.70;40.90;;;;;;5083994;28;20507;-70
2021/06/19 10:04:09;;;;;;;7.67;6.50;;;33.80;40.20;;;;;;5094174;28;20784;-71
2021/06/19 10:06:37;;;;;;;8.67;6.10;;;33.80;39.40;;;;;;5091722;28;20511;-69
2021/06/19 10:09:06;;;;;;;8.27;6.70;;;33.80;40.10;;;;;;5091089;28;20442;-69
2021/06/19 10:11:34;;;;;;;7.50;6.70;;;33.80;39.40;;;;;;5090479;28;20479;-69
2021/06/19 10:14:04;;;;;;;10.27;6.20;;;33.80;39.20;;;;;;5091475;28;20925;-69
2021/06/19 10:16:31;;;;;;;15.70;6.63;;;33.80;39.80;;;;;;5088131;28;20453;-69
2021/06/19 10:18:59;;;;;;;8.83;6.30;;;33.80;39.80;;;;;;5088687;28;20503;-69
2021/06/19 10:21:28;;;;;;;9.63;5.43;;;33.70;37.60;;;;;;5089679;28;20440;-69
2021/06/19 10:23:56;;;;;;;7.77;5.87;;;33.70;38.00;;;;;;5086583;28;20435;-69
2021/06/19 10:26:24;;;;;;;12.40;5.70;;;33.60;39.50;;;;;;5085626;28;21067;-70
2021/06/19 10:28:57;;;;;;;10.23;6.63;;;33.70;41.50;;;;;;5084152;28;20472;-69
2021/06/19 10:31:25;;;;;;;10.10;7.40;;;33.80;40.00;;;;;;5075345;28;20440;-69
2021/06/19 10:33:52;;;;;;;7.93;6.17;;;33.80;41.00;;;;;;5077323;28;20444;-69
2021/06/19 10:36:19;;;;;;;10.80;7.17;;;33.80;40.50;;;;;;5077058;28;20440;-69
2021/06/19 10:38:49;;;;;;;11.03;7.30;;;33.90;40.50;;;;;;5073854;28;20988;-69
2021/06/19 10:41:17;;;;;;;10.87;6.90;;;33.90;38.70;;;;;;5075815;28;21003;-70
2021/06/19 10:43:47;;;;;;;10.73;7.10;;;33.80;37.90;;;;;;5073547;28;20513;-69
2021/06/19 10:46:34;;;;;;;11.73;6.57;;;33.90;41.10;;;;;;5072447;28;20503;-70
2021/06/19 10:49:02;;;;;;;7.87;7.10;;;34.00;42.00;;;;;;5076080;28;20443;-72
2021/06/19 10:51:32;;;;;;;12.20;6.10;;;34.10;40.60;;;;;;5069404;28;20451;-69
2021/06/19 10:54:18;;;;;;;11.20;5.97;;;34.30;40.00;;;;;;5074622;28;21089;-69
2021/06/19 10:56:52;;;;;;;11.10;6.93;;;34.40;38.60;;;;;;5075466;28;20443;-69
2021/06/19 10:59:24;;;;;;;8.80;6.10;;;34.50;38.00;;;;;;5075414;28;20439;-69
2021/06/19 11:01:52;;;;;;;8.20;6.00;;;34.60;38.30;;;;;;5076298;28;20530;-69
2021/06/19 11:04:45;;;;;;;10.40;5.37;;;34.60;39.20;;;;;;5070551;28;20507;-68
2021/06/19 11:07:45;;;;;;;9.30;6.30;;;34.70;38.80;;;;;;5071846;28;20487;-69
2021/06/19 11:10:54;;;;;;;9.70;6.10;;;34.70;37.90;;;;;;5072422;28;20531;-69
2021/06/19 11:13:40;;;;;;;9.23;5.90;;;34.70;37.30;;;;;;5074668;28;20523;-69
2021/06/19 11:16:50;;;;;;;9.83;6.40;;;34.80;39.70;;;;;;5072670;28;20466;-69
2021/06/19 11:19:44;;;;;;;7.83;5.87;;;34.80;38.10;;;;;;5071993;28;20428;-69
2021/06/19 11:22:30;;;;;;;7.47;5.43;;;34.80;39.10;;;;;;5062634;28;20501;-69
2021/06/19 11:25:15;;;;;;;13.43;7.03;;;34.90;40.50;;;;;;5057002;28;20519;-70
2021/06/19 11:27:57;;;;;;;10.90;6.10;;;34.90;37.90;;;;;;5073914;28;20440;-68
2021/06/19 11:30:52;;;;;;;10.23;6.53;;;34.90;39.10;;;;;;5094001;28;20983;-69
2021/06/19 11:33:38;;;;;;;12.50;6.40;;;35.00;40.20;;;;;;5094131;28;20482;-69
2021/06/19 11:36:31;;;;;;;10.90;7.30;;;35.00;39.00;;;;;;5094262;28;20439;-69
2021/06/19 11:39:04;;;;;;;9.97;6.20;;;35.00;39.60;;;;;;5094261;28;20435;-69
2021/06/19 11:41:34;;;;;;;11.03;7.33;;;35.00;41.20;;;;;;5094144;28;20466;-69
2021/06/19 11:44:02;;;;;;;9.30;7.63;;;35.10;38.60;;;;;;5093918;28;20478;-68
2021/06/19 11:46:29;;;;;;;10.33;6.60;;;35.00;38.30;;;;;;5094004;28;20567;-68
2021/06/19 11:48:59;;;;;;;8.00;6.50;;;34.90;38.50;;;;;;5093908;28;20526;-69
2021/06/19 11:51:31;;;;;;;11.53;6.23;;;34.90;40.60;;;;;;5093611;28;20429;-69
2021/06/19 11:54:00;;;;;;;7.50;6.00;;;34.90;39.90;;;;;;5093888;28;20834;-69
2021/06/19 11:56:28;;;;;;;9.60;6.40;;;34.90;40.10;;;;;;5093739;28;20454;-69
2021/06/19 11:58:58;;;;;;;12.43;6.67;;;34.90;39.00;;;;;;5093831;28;20857;-69
2021/06/19 12:01:36;;;;;;;11.30;6.40;;;35.00;41.40;;;;;;5093437;28;20474;-69
2021/06/19 12:04:06;;;;;;;8.00;6.43;;;35.00;41.40;;;;;;5093473;28;20533;-69
2021/06/19 12:06:35;;;;;;;10.30;6.23;;;35.10;39.80;;;;;;5093336;28;20561;-69
2021/06/19 12:09:03;;;;;;;7.30;6.57;;;35.20;40.00;;;;;;5093331;28;20442;-69
2021/06/19 12:11:33;;;;;;;7.70;5.60;;;35.10;40.50;;;;;;5091661;28;20488;-71
2021/06/19 12:14:00;;;;;;;9.83;6.10;;;35.20;39.70;;;;;;5091038;28;20504;-70
2021/06/19 12:16:32;;;;;;;6.90;6.20;;;35.20;40.60;;;;;;5091180;28;20497;-69
2021/06/19 12:19:01;;;;;;;9.10;6.07;;;35.20;39.40;;;;;;5091249;28;20522;-68
2021/06/19 12:21:33;;;;;;;10.83;7.17;;;35.20;40.20;;;;;;5091375;28;20435;-73
2021/06/19 12:24:01;;;;;;;8.80;6.30;;;35.10;39.60;;;;;;5091106;28;20492;-69
2021/06/19 12:26:29;;;;;;;9.93;7.17;;;35.00;40.70;;;;;;5091201;28;20483;-70
2021/06/19 12:28:56;;;;;;;11.27;6.90;;;35.10;42.00;;;;;;5090983;28;20491;-69
2021/06/19 12:31:26;;;;;;;6.83;6.00;;;35.10;42.20;;;;;;5090888;28;20526;-69
2021/06/19 12:34:02;;;;;;;9.30;5.70;;;35.10;38.40;;;;;;5091238;28;20470;-68
2021/06/19 12:36:33;;;;;;;8.03;7.17;;;35.00;35.60;;;;;;5091197;28;20446;-69
2021/06/19 12:39:03;;;;;;;7.07;5.67;;;34.80;36.20;;;;;;5091453;28;20435;-68
2021/06/19 12:41:30;;;;;;;8.63;4.67;;;34.70;35.70;;;;;;5091398;28;20474;-69
2021/06/19 12:44:02;;;;;;;10.50;6.17;;;34.60;33.90;;;;;;5089839;28;20453;-69
2021/06/19 12:46:30;;;;;;;7.70;6.30;;;34.50;34.30;;;;;;5091100;28;20573;-70
2021/06/19 12:49:05;;;;;;;6.60;6.07;;;34.50;34.60;;;;;;5091298;28;20530;-69
2021/06/19 12:51:39;;;;;;;7.33;6.10;;;34.40;36.50;;;;;;5091066;28;20462;-70
2021/06/19 12:54:18;;;;;;;8.40;5.90;;;34.30;35.80;;;;;;5091287;28;20442;-69
2021/06/19 12:56:51;;;;;;;8.73;5.70;;;34.20;36.90;;;;;;5090635;28;20434;-69
2021/06/19 12:59:21;;;;;;;6.07;5.57;;;34.20;36.80;;;;;;5071030;28;20447;-69